Date,TemperatureHighF,TemperatureAvgF,TemperatureLowF,DewpointHighF,DewpointAvgF,DewpointLowF,HumidityHigh,HumidityAvg,HumidityLow,PressureMaxIn,PressureMinIn,WindSpeedMaxMPH,WindSpeedAvgMPH,GustSpeedMaxMPH,PrecipitationSumIn
2013-1-1,40.6,36.4,28.5,32.7,27.6,14.5,82,70,55,30.01,29.83,10,1,10,0.05
2013-1-2,34.0,28.4,23.9,20.4,16.6,13.1,76,61,48,30.17,29.98,9,1,9,0.00
2013-1-3,33.5,28.6,24.4,20.2,19.0,17.2,82,67,54,30.18,30.06,6,0,6,0.00
2013-1-15,39.8,38.1,36.1,36.7,31.8,28.9,92,78,68,30.33,30.19,1,0,5,0.16
2013-1-16,36.2,34.5,32.9,35.2,33.3,31.6,97,96,90,30.19,29.80,2,0,7,0.62
2013-1-17,44.1,39.4,36.0,35.5,32.0,27.3,96,76,59,30.08,29.90,2,0,8,0.00
2013-1-18,36.9,30.1,26.1,27.3,15.9,7.0,71,56,37,30.46,30.00,4,1,12,0.00
2013-1-19,50.8,38.1,25.7,31.2,26.3,16.0,82,64,45,30.39,29.91,1,0,7,0.00
2013-1-20,55.0,41.1,30.2,33.9,25.0,14.0,91,56,27,30.03,29.68,4,2,14,0.00
2013-1-21,33.6,29.7,22.5,19.8,15.7,11.3,79,56,45,30.08,29.83,10,0,10,0.00
2013-1-22,27.4,20.4,14.2,13.4,3.0,-3.1,60,47,33,30.21,29.83,14,2,14,0.00
2013-1-23,21.4,15.4,11.3,7.7,1.4,-3.6,80,54,39,30.25,30.16,11,1,11,0.00
2013-1-24,24.5,17.4,9.8,9.3,3.8,-1.9,88,58,32,30.42,30.11,15,2,15,0.00
2013-1-25,25.0,17.9,12.0,17.1,7.3,-1.2,88,64,45,30.43,30.06,7,0,7,0.00
2013-1-26,28.0,19.4,9.3,13.8,9.6,6.2,91,67,46,30.38,30.04,10,1,10,0.00
2013-1-27,35.0,24.4,13.6,17.2,13.5,9.1,83,64,40,30.52,30.38,9,0,9,0.00
2013-1-28,34.4,29.9,20.6,33.4,26.8,15.2,96,88,75,30.48,29.99,5,0,5,0.13
2013-1-29,53.2,41.8,33.7,45.1,39.3,32.7,98,92,72,30.12,29.99,5,0,5,0.01
2013-1-30,66.6,52.2,41.4,60.4,50.3,40.9,99,94,78,30.05,29.32,8,0,8,0.06
2013-1-31,62.0,45.2,29.3,60.1,33.7,13.6,96,66,40,29.79,29.02,18,2,18,0.74
2013-2-1,32.4,28.2,23.6,22.0,14.7,4.9,85,58,31,30.23,29.79,10,1,13,0.00
2013-2-2,23.6,20.6,18.4,11.7,10.4,8.9,73,64,58,30.29,30.23,7,0,8,0.00
2013-4-26,66.2,53.9,39.8,38.5,33.9,26.5,84,51,23,30.37,30.24,2,0,9,0.00
2013-4-27,69.9,56.8,41.2,36.9,34.0,29.3,81,46,22,30.41,30.25,1,0,8,0.00
2013-4-28,71.3,57.5,41.6,45.7,38.8,30.2,84,53,31,30.29,30.15,2,0,9,0.00
2013-4-29,56.8,53.7,51.4,51.8,49.6,42.2,95,86,58,30.21,30.15,1,0,7,0.00
2013-4-30,63.2,55.4,46.9,50.8,43.8,31.7,95,69,33,30.31,30.17,2,1,9,0.00
2013-5-1,65.0,53.0,38.9,46.0,40.5,34.2,92,66,32,30.46,30.30,2,1,9,0.00
2013-5-2,70.7,57.0,40.2,48.3,44.1,38.4,96,66,36,30.45,30.29,1,0,4,0.00
2013-5-3,63.4,55.7,47.4,47.8,43.3,38.3,86,64,48,30.42,30.33,6,1,6,0.00
2013-5-4,67.4,53.5,41.8,49.5,44.0,39.9,96,73,44,30.35,30.21,6,0,6,0.00
2013-5-5,58.7,50.7,42.7,46.8,43.1,40.0,92,76,57,30.27,30.20,7,0,7,0.00
2013-5-6,64.5,54.9,45.4,55.2,48.8,42.6,92,81,68,30.24,30.13,5,0,6,0.00
2013-5-7,69.3,58.3,45.9,60.9,53.7,44.3,97,85,72,30.15,30.05,6,0,6,0.00
2013-5-8,66.5,60.3,54.2,62.8,58.5,52.5,98,94,85,30.07,29.93,4,0,4,0.00
2013-5-9,68.8,59.6,53.1,59.6,56.2,51.5,98,89,67,29.97,29.86,4,0,4,1.47
2013-5-10,80.4,66.9,52.9,63.2,57.7,51.8,98,75,39,29.98,29.86,3,0,4,0.00
2013-5-11,73.3,64.9,62.2,67.3,63.1,59.4,98,94,69,29.88,29.67,7,0,7,0.55
2013-5-12,67.4,60.0,51.3,61.3,45.4,28.2,97,63,29,29.93,29.65,9,1,9,0.01
2013-5-13,57.5,49.7,40.7,37.5,32.8,27.2,85,54,34,30.09,29.93,9,1,9,0.00
2013-5-14,62.1,50.7,38.3,35.7,31.8,23.4,87,53,24,30.12,30.00,6,0,9,0.00
2013-5-15,75.0,63.0,43.2,59.9,51.7,36.2,85,68,52,30.05,29.66,5,0,5,0.01
2013-5-16,81.2,67.7,56.2,64.4,58.3,45.6,97,75,44,29.81,29.68,5,0,5,0.00
2013-5-17,74.3,64.6,53.7,49.8,44.9,40.6,76,50,32,30.17,29.80,7,0,7,0.00
2013-5-18,64.1,58.6,53.9,57.4,52.8,47.8,88,81,72,30.28,30.17,3,0,3,0.01
2013-5-19,58.5,57.2,55.5,57.5,56.2,54.3,98,96,87,30.27,30.14,5,0,5,0.31
2013-5-20,78.7,66.9,57.5,69.9,63.4,56.9,99,89,72,30.15,29.93,4,0,4,0.00
2013-5-21,87.4,72.8,61.5,76.0,67.7,60.3,99,85,61,29.95,29.82,6,0,6,0.01
2013-5-22,81.0,71.1,62.4,73.0,67.3,60.2,98,88,75,29.90,29.79,4,0,4,0.00
2013-5-23,82.7,73.0,69.3,71.6,68.9,66.1,95,87,65,29.86,29.72,6,0,6,0.05
2013-5-24,69.3,55.8,44.8,66.8,53.3,42.1,98,91,79,29.95,29.66,9,1,9,0.43
2013-5-25,58.2,50.9,44.3,45.7,41.9,36.4,95,73,49,30.00,29.90,15,2,15,0.10
2013-5-26,68.6,57.7,47.1,42.5,38.8,32.5,80,53,29,30.18,29.97,15,1,15,0.00
2013-5-27,75.0,59.0,41.3,48.5,42.6,36.4,93,59,30,30.23,30.10,5,0,5,0.00
2013-5-28,64.1,57.2,50.4,59.1,53.9,46.6,98,89,68,30.20,30.09,4,0,4,0.29
2013-5-29,86.3,70.1,59.1,73.2,64.5,58.5,99,85,55,30.10,29.97,5,0,5,0.01
2013-5-30,92.3,78.9,67.8,70.7,67.2,63.4,95,70,40,30.11,30.02,4,0,4,0.00
2013-5-31,93.5,79.4,66.9,73.0,66.9,62.8,95,69,39,30.10,29.95,4,0,4,0.00
2013-6-1,91.3,79.0,66.2,73.0,68.1,64.1,97,72,46,30.00,29.86,4,0,4,0.00
2013-6-2,89.0,79.5,71.3,72.7,69.8,67.4,92,73,54,29.88,29.75,5,0,5,0.10
2013-6-3,81.0,72.1,68.7,70.9,68.0,54.6,98,88,63,29.85,29.76,3,0,3,0.40
2013-6-4,76.2,67.0,57.4,55.5,47.5,44.4,70,51,35,30.09,29.86,7,0,7,0.00
2013-6-5,72.5,63.3,50.7,56.0,49.1,42.9,88,61,41,30.18,30.08,8,0,8,0.00
2013-6-6,70.0,62.8,56.0,60.9,58.3,53.7,96,86,60,30.12,29.97,5,0,5,0.15
2013-6-7,63.7,61.5,60.2,63.1,60.8,59.6,98,98,96,29.97,29.57,7,0,7,2.49
2013-6-8,75.8,66.7,57.4,66.6,62.3,56.4,99,87,68,30.03,29.56,6,0,6,0.08
2013-6-9,82.6,70.8,58.9,64.3,61.4,57.8,98,75,48,30.15,30.03,4,0,4,0.00
2013-6-10,68.3,65.9,64.2,66.5,64.3,62.5,99,95,88,30.13,29.77,5,0,5,1.34
2013-6-11,79.5,72.9,66.9,70.0,67.0,61.4,99,83,64,29.77,29.60,6,0,6,0.06
2013-6-12,80.4,71.2,63.3,63.3,58.8,55.2,86,66,43,29.82,29.69,8,0,8,0.00
2013-6-13,66.0,62.5,57.2,63.5,60.6,55.9,97,94,84,29.82,29.41,6,0,6,1.13
2013-6-14,72.5,60.6,54.2,63.5,56.2,51.8,97,86,58,29.88,29.50,6,0,6,0.25
2013-6-15,80.5,67.9,56.1,62.2,57.9,53.8,99,74,41,29.99,29.87,5,0,5,0.00
2013-6-16,82.0,69.8,57.8,67.3,61.6,56.1,96,77,49,29.97,29.75,6,0,7,0.00
2013-6-17,86.8,73.7,63.8,70.7,66.3,62.4,97,79,54,29.89,29.81,7,0,7,0.01
2013-6-18,79.6,70.3,64.4,72.1,66.3,63.0,97,88,69,29.87,29.78,4,0,4,0.14
2013-6-19,77.7,69.2,59.3,62.9,55.0,47.1,96,64,37,30.14,29.85,4,0,4,0.01
2013-6-20,81.9,69.1,55.7,62.7,57.7,53.4,94,69,46,30.24,30.14,4,0,4,0.00
2013-6-21,84.0,71.1,57.1,63.3,57.1,51.8,90,63,43,30.28,30.20,4,0,4,0.00
2013-6-22,84.8,72.2,57.5,68.5,61.5,54.3,92,71,50,30.24,30.08,2,0,4,0.00
2013-6-23,89.4,74.9,63.2,74.9,68.2,60.7,97,81,55,30.17,30.02,4,0,4,0.25
2013-6-24,93.7,77.9,70.1,75.8,70.5,60.8,99,80,48,30.05,29.93,6,0,6,0.00
2013-6-25,92.0,76.9,66.7,77.3,70.1,64.9,97,81,50,29.97,29.79,6,0,6,0.30
2013-6-26,86.8,77.6,71.3,74.2,69.9,65.9,95,78,56,29.83,29.75,4,0,4,0.02
2013-6-27,85.8,77.3,70.5,76.0,72.0,69.3,98,85,68,29.80,29.52,8,0,8,0.75
2013-6-28,86.4,76.8,71.3,73.4,71.0,67.0,98,83,61,29.54,29.44,5,0,5,0.00
2013-6-29,86.3,76.4,67.1,71.4,68.4,65.4,97,78,52,29.67,29.46,5,0,5,0.00
2013-6-30,83.2,76.0,70.7,76.2,72.7,69.2,97,90,77,29.88,29.67,3,0,3,0.08
2013-7-1,76.4,74.6,72.6,75.3,73.0,71.1,98,95,90,30.01,29.86,4,0,4,0.97
2013-7-2,84.5,76.7,72.9,76.8,73.7,71.7,97,91,74,30.15,30.01,4,0,4,0.03
2013-7-3,85.5,76.9,71.1,78.1,73.8,69.8,97,91,76,30.22,30.14,4,0,4,0.06
2013-7-4,89.6,80.6,74.0,78.3,74.7,72.7,99,84,63,30.23,30.12,4,0,4,0.01
2013-7-5,92.4,81.8,73.0,77.3,74.1,71.7,97,79,59,30.19,30.06,3,0,4,0.00
2013-7-6,93.2,83.1,74.1,76.9,74.1,72.1,95,76,54,30.12,29.99,5,0,5,0.00
2013-7-7,94.7,83.5,74.7,78.9,74.3,69.9,93,75,56,30.04,29.90,8,0,8,0.00
2013-7-8,89.2,79.0,70.9,73.6,70.1,66.9,92,75,53,30.02,29.94,5,0,6,0.00
2013-7-9,88.2,77.9,69.4,75.9,71.1,67.1,97,81,59,30.05,29.95,6,0,6,0.14
2013-7-10,83.8,74.9,71.8,77.4,73.3,70.9,98,95,79,29.99,29.87,4,0,4,0.00
2013-7-11,84.8,79.2,75.1,74.5,70.7,63.7,90,76,62,29.89,29.77,2,0,2,0.00
2013-7-12,77.3,72.8,68.9,70.7,67.4,63.9,97,84,73,30.05,29.89,5,0,5,0.32
2013-7-13,82.3,73.7,68.6,77.5,72.4,67.8,99,96,83,30.25,30.05,4,0,4,0.14
2013-7-14,90.1,80.5,74.0,77.3,74.6,72.0,99,84,61,30.31,30.21,4,0,4,0.00
2013-7-15,94.7,83.2,72.9,78.4,74.1,70.8,95,76,52,30.23,30.10,4,0,4,0.00
2013-7-16,94.0,83.3,73.2,73.9,70.9,67.2,90,68,42,30.17,30.09,4,0,4,0.00
2013-7-17,96.0,83.7,73.2,75.6,72.8,70.6,96,72,46,30.16,30.02,3,0,3,0.00
2013-7-18,97.8,85.9,75.4,78.1,74.8,71.0,91,72,45,30.05,29.92,4,0,4,0.00
2013-7-19,96.6,86.5,78.0,81.0,77.8,75.3,95,77,55,29.95,29.77,5,0,5,0.04
2013-7-20,92.0,81.2,74.3,78.2,74.4,71.4,98,81,56,29.81,29.70,6,0,6,0.50
2013-7-21,87.2,78.2,72.9,74.7,70.3,65.0,98,79,53,29.92,29.81,4,0,4,0.00
2013-7-22,86.9,77.3,72.3,76.5,72.9,68.4,97,87,69,29.92,29.76,4,0,4,0.31
2013-7-23,86.6,77.9,72.0,76.3,73.6,70.9,98,87,67,29.76,29.54,4,0,4,0.37
2013-7-24,81.2,74.7,67.6,71.2,66.1,55.9,95,76,58,29.90,29.59,5,0,5,0.00
2013-7-25,67.6,65.9,63.7,61.3,56.9,52.1,87,73,65,30.02,29.90,5,0,5,0.00
2013-7-26,82.2,72.2,64.9,65.9,62.4,60.1,88,72,53,30.02,29.97,4,0,4,0.00
2013-7-27,84.4,73.0,62.8,70.4,64.8,61.3,98,77,50,30.02,29.91,3,0,6,0.00
2013-7-28,81.2,72.0,66.8,72.5,68.3,64.4,98,89,70,29.95,29.86,5,0,5,0.57
2013-7-29,84.5,73.6,65.8,70.3,65.3,56.3,99,78,43,30.09,29.92,6,0,6,0.03
2013-7-30,81.9,70.2,59.0,63.0,59.9,57.0,95,72,46,30.15,30.07,4,0,4,0.00
2013-7-31,82.5,71.3,59.8,65.5,62.1,58.1,97,75,46,30.14,30.01,4,0,4,0.00
2013-8-1,71.1,68.9,66.8,69.3,66.8,64.5,98,93,83,30.01,29.81,0,0,0,0.98
2013-8-2,83.7,73.2,64.3,69.4,66.3,61.7,99,81,50,29.89,29.77,5,0,5,0.00
2013-8-3,76.9,69.7,65.0,69.8,66.0,62.5,95,88,76,29.90,29.83,4,0,4,0.04
2013-8-4,79.0,70.1,60.7,64.8,60.2,53.7,97,73,47,29.96,29.83,6,0,6,0.00
2013-8-5,77.4,67.4,57.3,59.4,54.0,47.4,89,65,38,30.04,29.95,5,0,5,0.00
2013-8-6,79.9,69.5,58.6,64.9,59.6,54.3,96,73,46,30.09,30.00,4,0,4,0.00
2013-8-7,78.8,71.8,66.1,69.1,66.6,63.2,93,84,68,30.11,30.03,4,0,4,0.00
2013-8-8,81.7,73.6,69.2,77.6,71.9,68.3,98,95,79,30.04,29.96,3,0,3,1.40
2013-8-9,84.1,76.9,72.1,78.6,74.4,71.5,99,93,78,29.99,29.78,6,0,6,0.06
2013-8-10,81.6,74.3,67.6,73.3,68.1,63.9,98,82,61,30.02,29.84,3,0,3,0.00
2013-8-11,81.6,71.4,59.9,67.5,61.6,55.2,95,73,45,30.10,29.99,3,0,3,0.00
2013-8-12,80.6,72.7,68.6,70.7,67.8,64.2,97,85,58,30.01,29.90,2,0,2,0.22
2013-8-13,77.2,71.2,68.1,71.5,68.6,65.4,98,92,78,29.91,29.67,5,0,5,0.70
2013-8-14,73.5,66.7,59.1,66.0,55.6,50.6,90,69,51,29.88,29.74,8,1,8,0.00
2013-8-15,77.8,65.8,53.0,59.1,54.5,50.9,95,70,41,30.12,30.03,4,0,4,0.00
2013-8-16,79.9,66.8,55.3,61.9,56.9,53.2,97,73,43,30.18,30.10,3,0,3,0.00
2013-8-17,81.1,68.3,56.3,63.6,58.7,54.6,96,74,44,30.25,30.18,3,0,3,0.00
2013-8-18,75.5,67.9,62.5,65.8,61.8,58.8,94,82,58,30.23,30.11,2,0,2,0.00
2013-8-19,75.6,68.3,61.8,68.2,63.9,60.1,97,87,66,30.12,30.02,2,0,3,0.01
2013-8-20,86.5,73.4,62.7,70.7,66.1,61.8,98,80,50,30.11,30.03,4,0,4,0.00
2013-8-21,88.4,75.4,64.6,70.6,65.8,62.1,97,75,44,30.16,30.03,5,0,5,0.00
2013-8-22,75.7,71.9,70.1,73.4,70.5,67.6,98,95,89,30.04,29.86,3,0,4,0.89
2013-8-23,80.6,72.3,65.2,70.5,64.1,54.4,98,78,43,30.07,29.86,7,0,7,0.00
2013-8-24,78.9,69.3,61.2,60.3,56.1,51.1,90,65,39,30.32,30.07,4,0,4,0.00
2013-8-25,82.0,67.8,55.6,62.0,58.1,54.2,97,74,44,30.38,30.21,4,0,4,0.00
2013-8-26,81.0,71.4,62.7,70.5,64.4,57.9,94,79,60,30.22,29.89,7,0,7,0.02
2013-8-27,85.6,76.1,68.8,71.5,69.5,67.9,98,82,58,29.90,29.81,4,0,5,0.05
2013-8-28,80.9,73.5,68.3,74.4,71.2,67.1,98,93,79,29.87,29.81,4,0,4,0.08
2013-8-29,78.8,72.3,68.6,71.0,68.9,65.6,98,89,74,30.01,29.85,4,0,4,0.00
2013-8-30,83.1,74.3,68.5,72.9,69.4,66.4,94,85,66,30.01,29.83,5,0,5,0.00
2013-8-31,86.0,77.2,69.6,76.8,72.5,68.3,96,86,71,29.85,29.75,3,0,3,0.00
2013-9-1,84.1,76.3,72.4,76.4,73.1,71.2,98,90,76,29.83,29.75,4,0,4,0.41
2013-9-2,78.0,74.0,71.1,74.9,72.6,70.2,99,96,84,29.78,29.68,3,0,3,0.16
2013-9-3,79.8,73.2,64.8,71.9,66.7,59.4,99,82,54,29.87,29.69,6,0,6,0.02
2013-9-4,79.4,68.7,59.4,63.5,60.5,57.8,96,77,52,29.99,29.86,5,0,5,0.00
2013-9-5,76.9,66.5,56.1,64.3,56.5,45.2,96,73,37,30.12,29.91,4,0,6,0.00
2013-9-6,70.5,60.2,49.4,52.3,47.7,41.9,91,66,37,30.23,30.12,4,0,4,0.00
2013-9-7,77.5,61.8,48.4,58.8,51.8,46.8,97,73,39,30.12,29.89,4,0,4,0.00
2013-9-8,77.3,67.0,61.8,66.5,61.5,57.3,93,83,69,29.89,29.81,4,0,4,0.00
2013-9-9,72.1,64.8,51.7,61.1,54.8,47.3,87,71,58,30.21,30.04,4,0,4,0.00
2013-9-10,85.1,74.6,66.1,75.1,69.4,61.1,93,84,71,30.15,30.02,4,0,4,0.00
2013-9-11,92.7,80.6,71.5,79.7,74.5,70.3,98,83,62,30.09,29.94,3,0,3,0.00
2013-9-12,85.8,76.7,68.9,76.3,72.0,67.9,97,86,68,29.97,29.65,7,0,7,0.24
2013-9-13,75.5,67.8,59.0,68.0,61.2,50.7,98,81,57,29.85,29.62,7,0,7,0.14
2013-9-14,64.9,57.9,50.1,52.0,49.1,46.7,89,73,58,30.12,29.85,6,0,6,0.00
2013-9-15,70.9,57.4,44.0,55.6,49.5,42.4,97,77,45,30.20,30.06,3,0,4,0.00
2013-9-16,70.1,61.7,54.4,60.5,55.4,49.4,98,81,56,30.21,30.02,5,0,5,0.06
2013-9-17,64.4,55.2,45.2,50.8,43.3,38.8,91,66,42,30.41,30.22,6,0,6,0.00
2013-9-18,69.8,55.2,41.8,51.1,46.3,40.1,98,75,43,30.33,30.17,3,0,3,0.00
2013-9-19,74.3,58.4,46.0,59.8,51.3,44.6,98,80,45,30.18,30.05,5,0,5,0.01
2013-9-20,78.1,63.3,50.0,61.5,56.2,48.8,98,80,51,30.07,29.96,3,0,3,0.00
2013-9-21,78.3,65.4,51.2,67.5,60.1,49.7,98,84,55,29.99,29.64,7,0,7,0.36
2013-9-22,68.3,62.5,54.9,67.1,53.4,42.4,98,74,50,29.90,29.63,7,1,7,0.34
2013-9-23,64.7,55.7,46.2,48.1,44.7,41.9,90,67,50,30.03,29.90,7,1,7,0.00
2013-9-24,71.0,55.9,42.4,51.5,46.6,40.4,96,74,45,30.04,29.86,6,0,6,0.00
2013-9-25,69.9,57.0,44.1,55.5,49.0,42.3,97,77,49,29.94,29.85,3,0,3,0.00
2013-9-26,69.5,58.8,48.8,60.4,54.6,47.4,98,87,69,30.07,29.92,2,0,4,0.00
2013-9-27,67.0,60.1,52.7,57.4,54.2,50.2,96,82,61,30.24,30.07,4,0,4,0.00
2013-9-28,72.3,61.5,53.7,56.0,53.7,50.4,95,78,48,30.30,30.21,4,0,5,0.00
2013-9-29,69.7,58.8,48.8,59.1,53.7,47.4,98,84,65,30.21,30.06,3,0,4,0.00
2013-9-30,72.3,58.8,47.0,56.5,51.9,45.6,98,80,51,30.07,29.95,4,0,4,0.00
2013-10-1,78.3,63.6,51.1,64.1,56.9,50.0,98,81,54,29.99,29.88,4,0,4,0.00
2013-10-2,81.4,66.4,53.7,64.7,59.6,52.3,98,81,55,30.00,29.89,6,0,6,0.00
2013-10-3,77.4,66.3,55.0,63.6,59.0,53.6,98,79,49,30.10,30.00,2,0,3,0.00
2013-10-4,83.8,68.0,58.6,68.2,62.4,56.8,97,83,58,30.04,29.94,4,0,4,0.00
2013-10-5,77.1,69.4,65.8,67.9,65.3,63.6,95,87,71,30.07,29.98,2,0,3,0.00
2013-10-6,69.3,66.7,65.4,67.2,65.1,63.7,96,94,92,30.06,30.01,5,0,5,0.00
2013-10-7,79.5,67.4,56.2,72.1,65.2,52.8,98,93,73,29.99,29.72,8,0,8,0.40
2013-10-8,66.8,56.5,48.1,53.3,48.7,44.4,97,78,46,30.30,29.97,6,0,6,0.00
2013-10-9,61.5,55.9,51.4,51.6,48.0,42.0,87,75,68,30.36,30.25,3,0,5,0.00
2013-10-10,61.6,57.3,51.9,56.3,52.5,48.0,93,84,79,30.25,30.03,6,0,6,0.04
2013-10-11,66.8,62.4,57.2,61.5,58.2,54.7,94,86,76,30.05,29.97,7,0,7,0.03
2013-10-12,70.8,64.6,58.1,58.8,52.3,42.4,80,65,46,30.24,30.03,6,0,6,0.00
2013-10-13,65.4,59.5,52.4,55.3,53.0,49.2,89,79,65,30.35,30.23,5,0,7,0.00
2013-10-14,66.7,55.6,46.7,52.3,49.5,45.3,97,81,54,30.34,30.22,3,0,3,0.00
2013-10-15,69.3,56.1,46.2,56.5,47.4,33.0,98,76,30,30.24,30.09,4,0,4,0.00
2013-10-16,67.7,59.6,50.4,60.0,55.9,48.2,96,88,74,30.10,29.90,3,0,3,0.00
2013-10-17,72.1,65.5,60.7,64.1,61.6,59.0,97,88,70,29.90,29.66,2,0,2,0.01
2013-10-18,66.3,59.9,48.7,63.5,48.8,43.9,93,68,47,29.97,29.66,8,0,8,0.00
2013-10-19,63.7,52.7,41.8,54.5,46.6,40.0,96,81,56,29.97,29.73,4,0,4,0.00
2013-10-20,61.7,53.2,42.8,54.0,42.4,35.9,93,69,39,30.05,29.75,5,0,5,0.00
2013-10-21,66.1,51.5,37.2,46.0,40.8,35.6,96,71,40,30.14,29.97,4,0,4,0.00
2013-10-22,64.8,51.2,41.1,52.6,45.8,39.1,97,83,61,29.97,29.74,6,0,6,0.00
2013-10-23,55.7,46.2,38.3,42.3,38.9,36.2,95,77,56,29.80,29.59,7,0,7,0.00
2013-10-24,53.5,43.7,35.9,37.2,33.3,28.0,93,69,40,30.01,29.75,8,0,8,0.00
2013-10-25,53.6,42.2,33.2,36.5,32.4,29.8,91,70,43,30.22,30.01,8,0,8,0.00
2013-10-26,54.7,42.9,30.1,37.0,32.6,28.3,96,70,42,30.21,29.88,7,0,7,0.00
2013-10-27,57.4,47.7,37.7,37.9,35.2,32.5,84,63,42,30.11,29.84,8,0,8,0.00
2013-10-28,60.3,45.5,31.5,38.7,34.7,29.4,95,69,40,30.29,30.11,6,0,6,0.00
2013-10-29,56.6,46.7,38.9,39.1,36.5,33.6,88,69,46,30.39,30.28,4,0,4,0.00
2013-10-30,59.6,48.8,38.3,52.4,44.3,35.3,91,85,73,30.33,30.16,2,0,2,0.00
2013-10-31,65.5,58.4,49.7,62.1,55.9,47.5,97,92,80,30.20,29.78,5,0,5,0.09
2013-11-1,68.1,63.2,53.2,64.6,59.2,51.7,97,87,66,29.78,29.53,8,0,8,0.30
2013-11-2,66.6,55.9,49.1,53.8,48.3,42.2,98,78,50,29.77,29.60,5,0,5,0.00
2013-11-3,50.4,45.4,35.1,44.1,33.9,22.1,91,65,40,30.44,29.76,10,1,10,0.00
2013-11-4,45.1,37.5,31.3,29.2,22.5,18.1,83,56,34,30.64,30.44,5,0,5,0.00
2013-11-5,55.9,45.0,33.5,43.1,37.4,27.6,89,75,56,30.63,30.46,2,0,5,0.00
2013-11-6,63.9,51.4,38.2,52.3,45.6,36.6,97,82,59,30.48,30.05,3,0,3,0.00
2013-11-7,62.2,52.9,38.0,58.5,48.8,33.4,97,87,62,30.05,29.74,10,0,10,0.06
2013-11-8,49.4,41.9,34.8,37.5,31.8,27.3,90,68,43,30.21,29.92,5,1,10,0.00
2013-11-9,50.8,41.1,30.2,34.1,30.5,27.1,91,68,43,30.29,29.98,6,0,6,0.00
2013-11-10,59.9,46.5,34.3,39.0,33.9,28.9,93,64,40,30.05,29.81,10,1,12,0.00
2013-11-11,54.7,47.3,36.0,36.3,31.4,27.2,73,54,42,30.20,29.94,10,0,11,0.00
2013-11-12,50.4,38.2,28.3,38.3,26.0,18.2,86,62,47,30.29,29.91,12,1,12,0.02
2013-11-13,39.2,31.3,23.7,20.8,17.6,12.5,80,58,34,30.37,30.27,11,1,11,0.00
2013-11-14,52.2,38.0,25.7,24.2,20.9,16.7,82,54,26,30.27,30.15,6,0,6,0.00
2013-11-15,56.9,40.0,28.7,34.9,28.2,21.4,84,65,32,30.24,30.14,4,0,4,0.00
2013-11-16,58.8,47.7,35.3,47.5,41.8,30.3,96,81,56,30.31,30.21,4,0,4,0.03
2013-11-17,59.9,54.3,45.3,57.8,52.6,44.2,98,94,90,30.24,29.76,2,0,2,0.01
2013-11-18,64.1,58.8,50.1,62.6,43.5,28.2,97,61,34,29.77,29.58,13,1,13,0.12
2013-11-19,50.1,43.6,35.8,30.3,26.4,22.7,61,51,44,30.33,29.77,9,2,15,0.00
2013-11-20,44.7,34.7,26.1,23.3,18.3,6.9,81,54,21,30.59,30.33,7,0,7,0.00
2013-11-21,51.4,41.0,26.5,42.4,32.4,20.3,82,72,57,30.59,30.37,3,0,5,0.00
2013-11-22,57.3,51.2,47.2,52.1,47.5,42.1,97,87,79,30.37,29.89,7,0,7,0.06
2013-11-23,53.1,42.2,30.7,48.7,27.7,13.2,95,57,38,30.03,29.89,14,2,14,0.00
2013-11-24,30.7,25.7,22.9,14.0,6.0,3.3,52,42,34,30.39,30.02,22,3,22,0.00
2013-11-25,35.6,28.4,19.9,18.0,13.9,7.8,69,55,44,30.48,30.32,7,0,7,0.00
2013-11-26,51.4,35.8,31.9,50.3,28.1,18.0,98,75,53,30.32,29.71,6,0,6,0.51
2013-11-27,62.2,46.5,34.1,61.3,43.4,22.6,98,89,61,29.76,29.34,14,2,14,1.36
2013-11-28,35.5,31.6,27.7,25.6,17.9,12.3,82,58,39,30.45,29.76,16,1,16,0.01
2013-11-29,38.9,31.3,27.2,25.2,22.3,17.6,87,70,50,30.72,30.45,5,0,9,0.00
2013-11-30,36.9,31.3,23.9,30.9,22.5,14.2,81,70,57,30.73,30.35,7,0,7,0.00
2013-12-1,47.7,39.2,28.9,36.5,31.4,26.3,92,74,58,30.35,30.00,5,0,5,0.00
2013-12-2,49.2,40.6,33.4,35.1,32.8,30.2,91,75,51,30.00,29.86,4,0,4,0.00
2013-12-3,52.9,41.0,32.8,41.2,35.1,30.4,96,81,54,29.99,29.85,5,0,5,0.00
2013-12-4,50.3,42.3,32.3,45.5,38.5,30.2,96,87,74,30.11,29.99,3,0,3,0.00
2013-12-5,57.2,51.9,47.3,56.5,50.9,45.6,98,96,90,30.09,29.91,3,0,3,0.02
2013-12-6,60.7,48.1,38.3,60.4,46.9,36.9,99,95,92,30.14,29.84,11,1,11,0.87
2013-12-7,41.2,36.2,30.4,37.3,29.7,18.4,96,78,59,30.50,30.07,10,1,10,0.10
2013-12-8,32.6,29.8,26.9,29.2,21.9,17.3,95,73,59,30.57,30.33,5,0,5,0.00
2013-12-9,37.3,34.1,30.5,36.5,33.1,29.2,97,96,95,30.33,29.96,5,0,6,0.29
2013-12-10,33.7,30.8,23.0,33.2,29.6,20.4,98,95,90,30.13,29.87,7,0,7,0.01
2013-12-11,31.9,26.3,20.1,22.9,20.4,17.2,92,79,62,30.32,30.13,8,0,8,0.01
2013-12-12,27.8,23.8,18.0,19.4,12.6,7.3,77,63,45,30.35,30.16,11,1,11,0.00
2013-12-13,34.2,25.5,16.1,22.7,17.0,10.5,84,71,53,30.31,30.13,10,0,10,0.00
2013-12-14,30.7,25.7,21.2,29.4,22.1,19.2,96,86,73,30.46,29.74,9,1,9,0.00
2013-12-15,38.4,33.9,30.2,34.0,30.1,23.2,97,86,67,29.84,29.50,10,1,10,0.46
2013-12-16,31.3,25.9,17.0,25.0,15.8,11.0,85,66,47,30.22,29.83,11,1,11,0.00
2013-12-17,30.0,25.4,19.9,28.1,22.2,15.5,93,88,71,30.21,29.91,5,0,5,0.00
2013-12-18,36.5,26.9,18.5,26.5,21.6,16.0,92,81,60,30.17,29.91,9,0,9,0.05
2013-12-19,42.6,30.1,18.4,31.2,25.2,16.3,94,83,60,30.18,30.01,2,0,3,0.15
2013-12-20,47.5,37.4,29.0,36.3,32.5,27.5,96,83,63,30.09,29.95,1,0,2,0.23
2013-12-21,57.8,44.3,34.9,51.0,41.8,33.5,98,91,77,29.99,29.88,4,0,4,0.03
2013-12-22,68.5,61.8,44.9,63.8,58.2,43.8,99,88,78,29.94,29.77,7,0,7,0.02
2013-12-23,60.4,54.2,40.9,59.8,52.2,31.4,98,93,70,30.15,29.86,12,1,12,0.57
2013-12-24,40.8,35.2,26.0,31.3,23.8,12.0,89,63,49,30.35,30.08,14,2,14,0.00
2013-12-25,28.4,24.8,18.8,18.2,11.8,8.7,69,57,48,30.52,30.35,14,1,14,0.00
2013-12-26,35.4,29.5,24.2,28.8,24.0,17.8,88,80,68,30.41,30.16,6,0,6,0.00
2013-12-27,40.5,30.4,22.2,25.7,23.1,19.8,92,76,51,30.35,30.25,7,0,7,0.00
2013-12-28,54.6,36.4,22.9,33.0,27.4,20.9,94,73,41,30.28,30.05,7,0,7,0.00
2013-12-29,42.7,38.8,32.4,41.8,36.2,28.4,97,90,82,30.06,29.41,10,0,10,0.96
2013-12-30,44.3,34.5,23.2,40.2,27.9,12.3,98,78,58,30.17,29.69,11,1,11,0.00
2013-12-31,31.9,26.2,19.6,27.6,16.5,11.3,87,67,56,30.28,30.05,11,0,11,0.00
2014-1-1,33.8,28.5,21.7,23.4,18.7,12.9,83,67,56,30.40,30.21,3,0,3,0.00
2014-1-2,32.2,26.5,16.0,24.9,22.0,13.3,92,83,69,30.21,29.65,8,2,10,0.00